Time;durP1;ratioP1;P1;durP2;ratioP2;P2;SDS_P1;SDS_P2;PMS_P1;PMS_P2;Temp;Humidity;BMP_temperature;BMP_pressure;BME280_temperature;BME280_humidity;BME280_pressure;Samples;Min_cycle;Max_cycle;Signal;HPM_P1;HPM_P2
2023/05/16 00:00:24;;;;;;;;;;;13.90;96.30;;;;;;6192511;23;19900;-96
2023/05/16 00:03:37;;;;;;;;;;;;;;;;;;;;;
2023/05/16 00:09:30;;;;;;;;;;;13.80;96.30;;;;;;6192160;23;19911;-96
2023/05/16 00:12:22;;;;;;;;;;;;;;;;;;;;;
2023/05/16 00:15:36;;;;;;;;;;;14.10;96.40;;;;;;6106286;23;19974;-96
2023/05/16 00:21:48;;;;;;;;;;;;;;;;;;;;;
2023/05/16 00:31:00;;;;;;;;;;;13.80;96.40;;;;;;6043480;23;20304;-96
2023/05/16 00:34:09;;;;;;;;;;;13.70;96.40;;;;;;6044249;23;20291;-96
2023/05/16 00:37:17;;;;;;;;;;;13.70;96.40;;;;;;6046232;23;19902;-96
2023/05/16 00:40:03;;;;;;;;;;;13.70;96.40;;;;;;6041271;23;19960;-96
2023/05/16 00:43:09;;;;;;;;;;;13.70;96.40;;;;;;6040111;23;19929;-96
2023/05/16 00:46:16;;;;;;;;;;;13.70;96.40;;;;;;6040669;23;20380;-96
2023/05/16 00:49:20;;;;;;;;;;;13.70;96.50;;;;;;6041821;23;20305;-96
2023/05/16 00:52:34;;;;;;;;;;;13.70;96.50;;;;;;6042656;23;20032;-96
2023/05/16 00:58:37;;;;;;;;;;;13.70;96.50;;;;;;5960757;24;19992;-96
2023/05/16 01:01:42;;;;;;;;;;;13.70;96.50;;;;;;5957015;24;19903;-96
2023/05/16 01:04:25;;;;;;;;;;;13.70;96.50;;;;;;6000477;23;20336;-96
2023/05/16 01:07:36;;;;;;;;;;;13.70;96.60;;;;;;6049520;23;19909;-96
2023/05/16 01:10:36;;;;;;;;;;;13.70;96.60;;;;;;6070673;23;19916;-96
2023/05/16 01:13:43;;;;;;;;;;;13.70;96.60;;;;;;6070054;23;19905;-96
2023/05/16 01:16:58;;;;;;;;;;;13.60;96.60;;;;;;6068959;23;19909;-96
2023/05/16 01:20:09;;;;;;;;;;;13.60;96.60;;;;;;6011537;23;20358;-96
2023/05/16 01:22:50;;;;;;;;;;;13.70;96.60;;;;;;6069955;23;19901;-96
2023/05/16 01:25:56;;;;;;;;;;;13.60;96.60;;;;;;6072199;23;19905;-96
2023/05/16 01:29:10;;;;;;;;;;;13.60;96.60;;;;;;6069820;23;19902;-95
2023/05/16 01:32:06;;;;;;;;;;;13.60;96.60;;;;;;6068505;23;19909;-96
2023/05/16 01:38:18;;;;;;;;;;;13.60;96.70;;;;;;6072329;23;19901;-96
2023/05/16 01:41:35;;;;;;;;;;;13.60;96.70;;;;;;6071611;23;19901;-96
2023/05/16 01:44:37;;;;;;;;;;;13.60;96.70;;;;;;5987537;24;19981;-96
2023/05/16 01:47:44;;;;;;;;;;;13.60;96.70;;;;;;5986770;24;19903;-96
2023/05/16 01:50:56;;;;;;;;;;;13.60;96.70;;;;;;5984217;24;19914;-96
2023/05/16 01:54:00;;;;;;;;;;;13.60;96.70;;;;;;5984815;24;19909;-96
2023/05/16 01:57:03;;;;;;;;;;;13.60;96.70;;;;;;5986005;24;19902;-96
2023/05/16 02:00:14;;;;;;;;;;;13.60;96.80;;;;;;5971732;24;19978;-96
2023/05/16 02:03:22;;;;;;;;;;;13.60;96.80;;;;;;5984726;24;19909;-96
2023/05/16 02:06:14;;;;;;;;;;;13.60;96.80;;;;;;5983627;24;19911;-96
2023/05/16 02:09:19;;;;;;;;;;;13.60;96.80;;;;;;5983572;23;19945;-96
2023/05/16 02:12:27;;;;;;;;;;;13.60;96.80;;;;;;5983803;24;19906;-95
2023/05/16 02:15:30;;;;;;;;;;;13.60;96.80;;;;;;6069546;23;19902;-96
2023/05/16 02:18:49;;;;;;;;;;;;;;;;;;;;;
2023/05/16 02:25:16;;;;;;;;;;;13.50;97.20;;;;;;6075137;23;19924;-96
2023/05/16 02:28:15;;;;;;;;;;;13.50;96.90;;;;;;5988544;24;20421;-96
2023/05/16 02:31:21;;;;;;;;;;;13.50;96.90;;;;;;5984642;24;20230;-96
2023/05/16 02:34:41;;;;;;;;;;;13.50;96.90;;;;;;5987220;24;19903;-96
2023/05/16 02:37:52;;;;;;;;;;;13.50;96.90;;;;;;5986001;24;19907;-96
2023/05/16 02:40:53;;;;;;;;;;;13.50;96.90;;;;;;5986823;24;19909;-96
2023/05/16 02:44:01;;;;;;;;;;;13.50;96.90;;;;;;5991788;24;19981;-96
2023/05/16 02:47:19;;;;;;;;;;;13.50;97.00;;;;;;5990235;24;19946;-96
2023/05/16 02:50:39;;;;;;;;;;;13.50;97.00;;;;;;5988949;24;19911;-96
2023/05/16 02:53:27;;;;;;;;;;;13.50;97.00;;;;;;5991717;24;19951;-96
2023/05/16 03:00:04;;;;;;;;;;;13.50;97.00;;;;;;5910908;24;20310;-96
2023/05/16 03:06:35;;;;;;;;;;;13.50;97.00;;;;;;5887445;24;19908;-96
2023/05/16 03:09:40;;;;;;;;;;;13.50;97.00;;;;;;5806781;24;20403;-96
2023/05/16 03:12:59;;;;;;;;;;;;;;;;;;;;;
2023/05/16 03:23:07;;;;;;;;;;;;;;;;;;;;;
2023/05/16 03:29:09;;;;;;;;;;;13.50;97.00;;;;;;5630241;25;19911;-96
2023/05/16 04:00:41;;;;;;;;;;;;;;;;;;;;;
2023/05/16 04:10:04;;;;;;;;;;;;;;;;;;;;;
2023/05/16 05:02:55;;;;;;;;;;;13.50;97.00;;;;;;6176219;23;19969;-96
2023/05/16 05:22:02;;;;;;;;;;;13.50;97.00;;;;;;5917050;24;19909;-96
2023/05/16 05:25:11;;;;;;;;;;;13.50;96.90;;;;;;5888940;24;19903;-96
2023/05/16 05:28:36;;;;;;;;;;;13.40;96.90;;;;;;5883512;24;19935;-96
2023/05/16 05:31:45;;;;;;;;;;;13.50;96.90;;;;;;5860192;24;19938;-96
2023/05/16 05:34:35;;;;;;;;;;;13.50;96.90;;;;;;5858521;24;19904;-96
2023/05/16 05:44:08;;;;;;;;;;;13.50;96.90;;;;;;5942495;24;20004;-96
2023/05/16 05:47:17;;;;;;;;;;;13.50;96.90;;;;;;5883083;24;19955;-96
2023/05/16 05:50:11;;;;;;;;;;;13.50;96.90;;;;;;5909935;24;19986;-96
2023/05/16 05:53:32;;;;;;;;;;;13.50;96.80;;;;;;5912724;24;19940;-96
2023/05/16 05:59:11;;;;;;;;;;;13.60;96.80;;;;;;5914231;24;19948;-96
2023/05/16 06:02:17;;;;;;;;;;;13.60;96.80;;;;;;5896296;24;19927;-96
2023/05/16 06:08:54;;;;;;;;;;;13.60;96.80;;;;;;5916652;24;19955;-96
2023/05/16 06:11:45;;;;;;;;;;;13.60;96.80;;;;;;5912948;24;19919;-96
2023/05/16 06:15:04;;;;;;;;;;;13.60;96.80;;;;;;5916048;24;19930;-96
2023/05/16 06:18:13;;;;;;;;;;;13.70;96.80;;;;;;5901956;24;19959;-96
2023/05/16 06:21:17;;;;;;;;;;;13.60;96.70;;;;;;5849099;24;19904;-96
2023/05/16 06:24:35;;;;;;;;;;;13.70;96.70;;;;;;5816957;24;19941;-96
2023/05/16 06:50:12;;;;;;;;;;;13.90;96.50;;;;;;6151142;23;19921;-96
2023/05/16 07:21:42;;;;;;;;;;;14.50;96.00;;;;;;6131520;23;19916;-96
2023/05/16 08:29:42;;;;;;;;;;;15.30;94.50;;;;;;6179427;23;20279;-96
2023/05/16 08:32:18;;;;;;;;;;;15.30;94.50;;;;;;6007782;23;19926;-96
2023/05/16 08:35:22;;;;;;;;;;;15.30;94.50;;;;;;6010868;23;19981;-96
2023/05/16 08:44:31;;;;;;;;;;;15.30;94.40;;;;;;5919877;24;19903;-96
2023/05/16 08:47:32;;;;;;;;;;;;;;;;;;;;;
2023/05/16 08:50:31;;;;;;;;;;;15.30;94.40;;;;;;5838949;24;19916;-96
2023/05/16 08:53:36;;;;;;;;;;;15.30;94.40;;;;;;5813915;24;19905;-96
2023/05/16 08:56:25;;;;;;;;;;;15.60;94.50;;;;;;5815716;24;19930;-96
2023/05/16 08:59:18;;;;;;;;;;;15.30;94.40;;;;;;5836953;24;19911;-96
2023/05/16 09:02:36;;;;;;;;;;;15.30;94.40;;;;;;5830779;24;19911;-96
2023/05/16 09:05:22;;;;;;;;;;;15.30;94.40;;;;;;5782598;24;19909;-96
2023/05/16 09:08:36;;;;;;;;;;;15.20;94.40;;;;;;5826406;24;19905;-96
2023/05/16 09:11:43;;;;;;;;;;;15.20;94.40;;;;;;5914137;24;19907;-96
2023/05/16 09:15:00;;;;;;;;;;;15.20;94.40;;;;;;5930230;24;19919;-96
2023/05/16 09:18:03;;;;;;;;;;;15.20;94.40;;;;;;5940002;24;19904;-96
2023/05/16 09:20:52;;;;;;;;;;;15.20;94.50;;;;;;5993880;23;20325;-96
2023/05/16 09:23:55;;;;;;;;;;;15.20;94.50;;;;;;6161901;23;19920;-96
2023/05/16 09:27:02;;;;;;;;;;;15.20;94.50;;;;;;6165011;23;19920;-96
2023/05/16 09:29:59;;;;;;;;;;;15.10;94.50;;;;;;6163792;23;19900;-96
2023/05/16 09:33:11;;;;;;;;;;;15.50;94.60;;;;;;6167320;23;19896;-96
2023/05/16 09:36:34;;;;;;;;;;;15.10;94.60;;;;;;6166555;23;19901;-96
2023/05/16 09:39:36;;;;;;;;;;;15.40;94.70;;;;;;6162762;23;19935;-96
2023/05/16 09:42:34;;;;;;;;;;;15.00;94.60;;;;;;6175068;23;19905;-96
2023/05/16 09:48:43;;;;;;;;;;;15.00;95.00;;;;;;6148211;23;19923;-96
2023/05/16 09:51:35;;;;;;;;;;;15.00;94.70;;;;;;6140501;23;19913;-96
2023/05/16 09:54:44;;;;;;;;;;;15.00;94.70;;;;;;6020967;23;19910;-96
2023/05/16 09:57:50;;;;;;;;;;;14.90;94.80;;;;;;6006333;23;19907;-96
2023/05/16 10:09:00;;;;;;;;;;;14.90;95.20;;;;;;6144139;23;19916;-96
2023/05/16 10:12:11;;;;;;;;;;;14.90;94.90;;;;;;6078458;23;19909;-96
2023/05/16 10:15:16;;;;;;;;;;;;;;;;;;;;;
2023/05/16 10:18:13;;;;;;;;;;;14.90;94.90;;;;;;6057785;23;19913;-96
2023/05/16 10:21:42;;;;;;;;;;;;;;;;;;;;;
2023/05/16 10:24:52;;;;;;;;;;;;;;;;;;;;;
2023/05/16 10:27:28;;;;;;;;;;;14.70;94.90;;;;;;5936798;24;20349;-96
2023/05/16 10:30:15;;;;;;;;;;;14.80;95.00;;;;;;5884391;24;19908;-96
2023/05/16 10:33:19;;;;;;;;;;;;;;;;;;;;;
2023/05/16 10:36:17;;;;;;;;;;;14.80;95.00;;;;;;5965660;24;19903;-96
2023/05/16 10:39:27;;;;;;;;;;;;;;;;;;;;;
2023/05/16 10:42:32;;;;;;;;;;;14.80;95.10;;;;;;5994969;24;19946;-96
2023/05/16 10:45:48;;;;;;;;;;;14.80;95.10;;;;;;5996821;24;19936;-96
2023/05/16 10:52:02;;;;;;;;;;;14.70;95.10;;;;;;5997582;24;20437;-96
2023/05/16 10:57:56;;;;;;;;;;;14.80;95.10;;;;;;5832480;24;19908;-96
2023/05/16 11:01:03;;;;;;;;;;;14.70;95.00;;;;;;5834433;24;19923;-96
2023/05/16 11:03:52;;;;;;;;;;;14.80;95.10;;;;;;5856205;24;19915;-96
2023/05/16 11:07:30;;;;;;;;;;;;;;;;;;;;;
2023/05/16 11:13:32;;;;;;;;;;;14.80;95.10;;;;;;5811662;24;19973;-96
2023/05/16 11:16:24;;;;;;;;;;;14.80;95.10;;;;;;5813557;24;19889;-96
2023/05/16 11:19:36;;;;;;;;;;;14.80;95.10;;;;;;5753229;25;19933;-96
2023/05/16 11:26:15;;;;;;;;;;;;;;;;;;;;;
2023/05/16 11:32:45;;;;;;;;;;;15.10;95.50;;;;;;5864643;24;19986;-96
2023/05/16 11:35:31;;;;;;;;;;;14.80;95.00;;;;;;5862500;24;19914;-96
2023/05/16 11:38:59;;;;;;;;;;;;;;;;;;;;;
2023/05/16 11:42:12;;;;;;;;;;;;;;;;;;;;;
2023/05/16 11:45:30;;;;;;;;;;;;;;;;;;;;;
2023/05/16 11:52:35;;;;;;;;;;;;;;;;;;;;;
2023/05/16 11:58:32;;;;;;;;;;;;;;;;;;;;;
2023/05/16 12:09:11;;;;;;;;;;;14.70;95.00;;;;;;6099761;23;19917;-95
2023/05/16 12:12:20;;;;;;;;;;;14.70;95.00;;;;;;6129520;23;19909;-96
2023/05/16 12:15:10;;;;;;;;;;;14.70;95.00;;;;;;6129978;23;19900;-96
2023/05/16 12:18:19;;;;;;;;;;;14.70;95.00;;;;;;6132893;23;19924;-96
2023/05/16 12:24:33;;;;;;;;;;;14.70;95.00;;;;;;6138023;23;19907;-96
2023/05/16 12:27:26;;;;;;;;;;;14.70;94.90;;;;;;5990353;24;19913;-96
2023/05/16 12:30:22;;;;;;;;;;;14.70;94.90;;;;;;5965653;24;19947;-96
2023/05/16 12:39:22;;;;;;;;;;;14.70;94.80;;;;;;5992656;24;19909;-96
2023/05/16 12:46:12;;;;;;;;;;;14.70;94.70;;;;;;6000414;23;19914;-96
2023/05/16 13:07:13;;;;;;;;;;;14.60;94.60;;;;;;6110720;23;20358;-96
2023/05/16 13:20:07;;;;;;;;;;;;;;;;;;;;;
2023/05/16 13:22:44;;;;;;;;;;;14.60;94.60;;;;;;5881022;24;20031;-96
2023/05/16 13:25:32;;;;;;;;;;;14.60;94.60;;;;;;5878889;24;19908;-96
2023/05/16 14:01:21;;;;;;;;;;;14.60;94.60;;;;;;5959824;23;19914;-96
2023/05/16 14:11:04;;;;;;;;;;;14.60;94.60;;;;;;5878361;24;19916;-96
2023/05/16 14:19:51;;;;;;;;;;;;;;;;;;;;;
2023/05/16 14:25:54;;;;;;;;;;;14.60;94.60;;;;;;5999963;24;19902;-96
2023/05/16 14:43:46;;;;;;;;;;;14.60;94.60;;;;;;6116633;23;19924;-96
2023/05/16 14:50:03;;;;;;;;;;;14.60;94.70;;;;;;6149552;23;19896;-96
2023/05/16 14:56:32;;;;;;;;;;;14.60;94.80;;;;;;6000576;24;19905;-96
2023/05/16 14:59:51;;;;;;;;;;;;;;;;;;;;;
2023/05/16 15:06:00;;;;;;;;;;;14.60;94.80;;;;;;5946833;24;20050;-96
2023/05/16 15:09:05;;;;;;;;;;;14.60;94.80;;;;;;5940111;24;19899;-96
2023/05/16 15:11:33;;;;;;;;;;;14.60;94.90;;;;;;5924651;24;19895;-96
2023/05/16 15:14:35;;;;;;;;;;;14.60;94.90;;;;;;5902848;24;19924;-96
2023/05/16 15:20:08;;;;;;;;;;;14.60;95.20;;;;;;6137001;23;19963;-96
2023/05/16 15:22:39;;;;;;;;;;;14.60;94.80;;;;;;6110412;23;19893;-96
2023/05/16 15:25:40;;;;;;;;;;;;;;;;;;;;;
2023/05/16 15:29:01;;;;;;;;;;;;;;;;;;;;;
2023/05/16 15:32:13;;;;;;;;;;;14.60;94.70;;;;;;6000369;24;19906;-96
2023/05/16 20:50:53;;;;;;;;;;;13.90;93.40;;;;;;5999054;24;19936;-96
2023/05/16 21:12:49;;;;;;;;;;;13.90;93.40;;;;;;5863411;24;19932;-96
2023/05/16 21:28:57;;;;;;;;;;;;;;;;;;;;;
2023/05/16 22:10:48;;;;;;;;;;;;;;;;;;;;;
2023/05/16 22:42:41;;;;;;;;;;;;;;;;;;;;;
